Time;durP1;ratioP1;P1;durP2;ratioP2;P2;SDS_P1;SDS_P2;PMS_P1;PMS_P2;Temp;Humidity;BMP_temperature;BMP_pressure;BME280_temperature;BME280_humidity;BME280_pressure;Samples;Min_cycle;Max_cycle;Signal;HPM_P1;HPM_P2
2021/09/10 00:01:45;;;;;;;;;3.25;3.25;;;;;26.72;49.48;100801.59;5059668;28;51183;-50
2021/09/10 00:04:10;;;;;;;;;1.50;1.50;;;;;26.72;49.05;100801.59;5077583;27;50962;-53
2021/09/10 00:06:36;;;;;;;;;5.25;3.00;;;;;26.70;49.50;100795.47;5081417;27;51046;-53
2021/09/10 00:09:01;;;;;;;;;3.25;2.00;;;;;26.69;48.99;100799.38;5095355;27;51612;-52
2021/09/10 00:11:26;;;;;;;;;2.00;1.50;;;;;26.66;49.03;100795.16;5085663;27;51182;-52
2021/09/10 00:13:52;;;;;;;;;1.25;1.25;;;;;26.68;49.39;100800.47;5084310;27;51168;-52
2021/09/10 00:16:18;;;;;;;;;2.25;2.25;;;;;26.65;49.39;100796.25;5088469;27;51081;-48
2021/09/10 00:18:43;;;;;;;;;1.75;1.75;;;;;26.65;49.59;100803.75;5077176;27;51128;-51
2021/09/10 00:21:08;;;;;;;;;2.00;2.00;;;;;26.64;49.24;100810.41;5088671;27;51150;-52
2021/09/10 00:23:34;;;;;;;;;2.00;2.00;;;;;26.64;49.23;100802.09;5081635;27;51228;-53
2021/09/10 00:25:59;;;;;;;;;2.00;2.00;;;;;26.62;49.11;100810.69;5085544;27;51228;-50
2021/09/10 00:28:25;;;;;;;;;4.00;2.00;;;;;26.61;49.40;100803.47;5082602;27;51758;-51
2021/09/10 00:30:51;;;;;;;;;1.00;1.00;;;;;26.60;49.40;100807.34;5095535;27;51774;-51
2021/09/10 00:33:16;;;;;;;;;2.00;1.00;;;;;26.59;49.43;100800.09;5096858;27;51156;-50
2021/09/10 00:35:43;;;;;;;;;3.25;1.75;;;;;26.59;49.84;100796.50;5089832;27;51009;-51
2021/09/10 00:38:08;;;;;;;;;4.25;3.75;;;;;26.59;49.84;100804.84;5076822;27;51809;-48
2021/09/10 00:40:33;;;;;;;;;3.00;3.00;;;;;26.58;49.41;100803.16;5077030;27;51096;-50
2021/09/10 00:42:59;;;;;;;;;3.00;3.00;;;;;26.56;49.30;100800.63;5091903;27;50991;-51
2021/09/10 00:45:24;;;;;;;;;2.75;2.00;;;;;26.56;49.31;100810.88;5081516;27;51067;-51
2021/09/10 00:47:49;;;;;;;;;3.75;2.00;;;;;26.55;49.30;100818.38;5096504;27;51642;-50
2021/09/10 00:50:15;;;;;;;;;2.25;2.25;;;;;26.54;49.74;100810.31;5095799;27;51095;-51
2021/09/10 00:52:41;;;;;;;;;2.50;1.50;;;;;26.53;49.77;100812.25;5088024;27;51270;-47
2021/09/10 00:55:07;;;;;;;;;2.50;0.25;;;;;26.53;49.37;100817.81;5077032;27;51000;-50
2021/09/10 00:57:32;;;;;;;;;4.00;2.00;;;;;26.52;49.56;100818.09;5076865;27;50985;-50
2021/09/10 00:59:57;;;;;;;;;2.00;2.00;;;;;26.51;49.76;100819.19;5078146;27;51151;-50
2021/09/10 01:02:23;;;;;;;;;2.50;2.50;;;;;26.50;49.99;100823.91;5092641;27;51290;-51
2021/09/10 01:04:49;;;;;;;;;1.50;1.50;;;;;26.49;49.54;100818.63;5096708;27;51049;-49
2021/09/10 01:07:14;;;;;;;;;2.00;2.00;;;;;26.49;50.01;100832.50;5089360;27;51083;-51
2021/09/10 01:09:41;;;;;;;;;2.00;1.75;;;;;26.48;49.87;100836.41;5076813;27;51115;-53
2021/09/10 01:12:07;;;;;;;;;2.75;2.75;;;;;26.46;49.96;100840.25;5078497;27;51130;-50
2021/09/10 01:14:33;;;;;;;;;2.00;2.00;;;;;26.47;49.88;100835.56;5085844;27;51081;-51
2021/09/10 01:16:59;;;;;;;;;3.00;3.00;;;;;26.46;50.15;100831.91;5096635;27;51014;-52
2021/09/10 01:19:28;;;;;;;;;2.25;2.25;;;;;26.46;49.73;100834.69;5095027;27;51383;-50
2021/09/10 01:21:56;;;;;;;;;3.75;1.50;;;;;26.45;49.54;100830.25;5091427;27;51862;-51
2021/09/10 01:24:35;;;;;;;;;1.50;1.25;;;;;26.43;49.59;100839.94;5083510;27;51314;-47
2021/09/10 01:27:00;;;;;;;;;4.75;3.25;;;;;26.43;49.75;100835.22;5085239;27;51224;-49
2021/09/10 01:29:27;;;;;;;;;2.50;2.25;;;;;26.42;50.26;100835.50;5070873;27;51072;-47
2021/09/10 01:31:53;;;;;;;;;2.50;2.00;;;;;26.41;50.23;100833.81;5077247;27;51196;-50
2021/09/10 01:34:20;;;;;;;;;2.75;1.75;;;;;26.40;49.58;100837.69;5076640;27;51080;-50
2021/09/10 01:36:45;;;;;;;;;1.25;1.25;;;;;26.40;50.02;100844.09;5088550;27;51168;-51
2021/09/10 01:39:11;;;;;;;;;2.00;2.00;;;;;26.39;49.84;100842.41;5079788;27;51153;-49
2021/09/10 01:41:36;;;;;;;;;2.00;2.00;;;;;26.38;49.95;100840.75;5077589;27;51171;-51
2021/09/10 01:44:01;;;;;;;;;2.50;1.75;;;;;26.37;50.26;100839.06;5077261;27;51406;-52
2021/09/10 01:46:27;;;;;;;;;2.00;2.00;;;;;26.36;50.11;100833.72;5090518;27;51121;-48
2021/09/10 01:48:52;;;;;;;;;2.50;2.00;;;;;26.35;50.04;100841.22;5093565;27;51163;-48
2021/09/10 01:51:17;;;;;;;;;2.25;2.00;;;;;26.34;50.17;100841.47;5077379;27;51293;-47
2021/09/10 01:53:43;;;;;;;;;2.00;2.00;;;;;26.33;50.10;100840.66;5095107;27;50883;-46
2021/09/10 01:56:08;;;;;;;;;3.75;2.25;;;;;26.32;50.21;100833.41;5095111;27;51616;-51
2021/09/10 01:58:34;;;;;;;;;3.00;1.00;;;;;26.31;50.35;100828.97;5087730;27;50944;-52
2021/09/10 02:00:59;;;;;;;;;3.25;3.25;;;;;26.31;50.21;100837.28;5095765;27;50968;-50
2021/09/10 02:03:25;;;;;;;;;3.00;3.00;;;;;26.30;50.08;100835.63;5079982;27;51123;-52
2021/09/10 02:05:50;;;;;;;;;1.50;1.50;;;;;26.30;50.26;100838.41;5075842;27;51142;-55
2021/09/10 02:08:16;;;;;;;;;3.25;2.00;;;;;26.29;50.39;100833.94;5086897;27;51357;-47
2021/09/10 02:10:41;;;;;;;;;4.50;1.75;;;;;26.29;49.92;100835.88;5095778;27;50967;-47
2021/09/10 02:13:06;;;;;;;;;3.75;2.75;;;;;26.28;50.01;100837.00;5082993;27;51285;-50
2021/09/10 02:15:32;;;;;;;;;4.00;2.75;;;;;26.27;50.14;100838.94;5095157;27;51862;-49
2021/09/10 02:17:57;;;;;;;;;1.75;1.75;;;;;26.27;50.24;100847.25;5093922;27;51112;-50
2021/09/10 02:20:22;;;;;;;;;2.50;2.50;;;;;26.26;50.02;100844.72;5088845;27;51148;-52
2021/09/10 02:22:47;;;;;;;;;2.00;2.00;;;;;26.25;50.56;100846.66;5065208;27;51131;-46
2021/09/10 02:25:13;;;;;;;;;1.50;1.25;;;;;26.25;50.33;100846.66;5075465;27;51103;-48
2021/09/10 02:27:38;;;;;;;;;1.00;1.00;;;;;26.24;50.53;100844.97;5090376;27;51132;-50
2021/09/10 02:30:04;;;;;;;;;1.00;1.00;;;;;26.23;50.56;100846.09;5089971;27;51166;-49
2021/09/10 02:32:30;;;;;;;;;1.00;1.00;;;;;26.23;50.06;100846.09;5076251;27;51536;-49
2021/09/10 02:34:55;;;;;;;;;1.00;1.00;;;;;26.22;50.58;100855.53;5080782;27;51849;-49
2021/09/10 02:37:21;;;;;;;;;1.75;1.50;;;;;26.21;50.22;100847.44;5094000;27;51193;-52
2021/09/10 02:39:47;;;;;;;;;2.50;2.50;;;;;26.20;50.49;100849.41;5085513;27;51096;-49
2021/09/10 02:42:13;;;;;;;;;1.50;1.50;;;;;26.21;50.16;100847.44;5080535;27;51048;-50
2021/09/10 02:44:38;;;;;;;;;3.50;3.50;;;;;26.19;50.65;100843.00;5095249;27;51848;-48
2021/09/10 02:47:03;;;;;;;;;1.25;1.25;;;;;26.19;50.36;100840.22;5093769;27;51132;-52
2021/09/10 02:49:29;;;;;;;;;2.00;2.00;;;;;26.18;50.25;100841.31;5094857;27;51204;-49
2021/09/10 02:51:54;;;;;;;;;4.00;1.00;;;;;26.18;50.71;100843.28;5094713;27;51301;-47
2021/09/10 02:54:19;;;;;;;;;2.00;2.00;;;;;26.17;50.91;100842.44;5086856;27;51591;-49
2021/09/10 02:56:45;;;;;;;;;3.75;1.50;;;;;26.18;50.64;100846.03;5093708;27;51019;-50
2021/09/10 02:59:10;;;;;;;;;2.00;2.00;;;;;26.18;50.18;100843.28;5097452;27;51046;-52
2021/09/10 03:01:36;;;;;;;;;3.00;2.50;;;;;26.17;50.39;100842.44;5098733;27;51004;-52
2021/09/10 03:04:01;;;;;;;;;5.75;3.00;;;;;26.16;50.40;100839.91;5080489;27;51216;-51
2021/09/10 03:06:26;;;;;;;;;2.25;2.25;;;;;26.15;50.24;100841.81;5098849;27;50992;-49
2021/09/10 03:08:52;;;;;;;;;3.00;3.00;;;;;26.14;50.37;100831.81;5098884;27;51047;-52
2021/09/10 03:11:17;;;;;;;;;2.50;2.00;;;;;26.14;50.71;100820.72;5097274;27;50886;-47
2021/09/10 03:13:42;;;;;;;;;2.00;2.00;;;;;26.14;50.56;100822.66;5082364;27;51369;-52
2021/09/10 03:16:08;;;;;;;;;1.25;1.25;;;;;26.13;50.82;100824.59;5090155;27;51317;-48
2021/09/10 03:18:33;;;;;;;;;2.00;2.00;;;;;26.13;50.58;100823.75;5083887;27;51517;-50
2021/09/10 03:20:59;;;;;;;;;2.75;2.00;;;;;26.12;50.94;100822.94;5079561;27;51182;-50
2021/09/10 03:23:24;;;;;;;;;2.00;2.00;;;;;26.10;50.46;100822.34;5089453;27;51116;-51
2021/09/10 03:25:49;;;;;;;;;2.50;2.50;;;;;26.10;50.66;100825.13;5095194;27;51585;-53
2021/09/10 03:28:15;;;;;;;;;3.00;2.75;;;;;26.10;50.53;100821.53;5078681;27;51035;-50
2021/09/10 03:30:40;;;;;;;;;4.75;3.50;;;;;26.10;50.53;100829.84;5080029;27;51139;-48
2021/09/10 03:33:05;;;;;;;;;5.00;3.75;;;;;26.09;51.02;100822.63;5078149;27;51831;-50
2021/09/10 03:35:31;;;;;;;;;4.25;3.00;;;;;26.08;50.83;100827.34;5078535;27;51232;-52
2021/09/10 03:37:56;;;;;;;;;2.75;2.75;;;;;26.08;50.97;100820.94;5089298;27;52279;-49
2021/09/10 03:40:22;;;;;;;;;3.00;3.00;;;;;26.08;50.67;100826.50;5078479;27;51366;-53
2021/09/10 03:42:47;;;;;;;;;2.00;2.00;;;;;26.07;51.17;100822.03;5086837;27;52764;-49
2021/09/10 03:45:13;;;;;;;;;4.00;4.00;;;;;26.07;50.90;100819.28;5097828;27;51157;-52
2021/09/10 03:47:38;;;;;;;;;3.00;3.00;;;;;26.07;50.87;100824.81;5081011;27;51055;-51
2021/09/10 03:50:04;;;;;;;;;4.00;3.00;;;;;26.06;50.89;100823.16;5086604;27;51032;-52
2021/09/10 03:52:30;;;;;;;;;3.50;2.50;;;;;26.06;51.05;100823.16;5079254;27;51787;-49
2021/09/10 03:54:55;;;;;;;;;2.75;2.00;;;;;26.04;51.15;100820.59;5077976;27;51052;-48
2021/09/10 03:57:20;;;;;;;;;2.00;2.00;;;;;26.04;51.16;100830.88;5092638;27;51093;-52
2021/09/10 03:59:46;;;;;;;;;4.00;2.50;;;;;26.04;50.77;100825.31;5097746;27;51139;-50
2021/09/10 04:02:11;;;;;;;;;1.75;1.75;;;;;26.02;50.90;100817.25;5097471;27;51229;-51
2021/09/10 04:04:36;;;;;;;;;2.75;2.00;;;;;26.02;51.27;100814.47;5097580;27;51087;-53
2021/09/10 04:07:02;;;;;;;;;3.25;3.25;;;;;26.01;51.10;100821.13;5089989;27;50945;-52
2021/09/10 04:09:27;;;;;;;;;5.50;4.00;;;;;26.01;51.37;100820.31;5097198;27;50965;-51
2021/09/10 04:11:52;;;;;;;;;3.50;3.00;;;;;25.99;51.41;100820.56;5095494;27;51340;-52
2021/09/10 04:14:18;;;;;;;;;4.75;3.50;;;;;25.98;51.19;100824.44;5087370;27;51139;-51
2021/09/10 04:16:43;;;;;;;;;5.75;5.75;;;;;25.98;51.27;100820.81;5086562;27;51579;-53
2021/09/10 04:19:08;;;;;;;;;6.75;4.00;;;;;25.97;51.43;100828.31;5096005;27;50938;-52
2021/09/10 04:21:34;;;;;;;;;6.75;5.00;;;;;25.97;50.94;100820.00;5095339;27;51704;-50
2021/09/10 04:23:59;;;;;;;;;4.00;4.00;;;;;25.96;51.47;100829.41;5081712;27;51053;-50
2021/09/10 04:26:24;;;;;;;;;3.75;3.75;;;;;25.96;51.44;100828.59;5094105;27;51180;-48
2021/09/10 04:28:50;;;;;;;;;5.00;3.00;;;;;25.96;51.25;100834.13;5088283;27;51014;-51
2021/09/10 04:31:18;;;;;;;;;4.50;3.25;;;;;25.95;51.47;100824.97;5097212;27;51030;-49
2021/09/10 04:33:45;;;;;;;;;5.00;5.00;;;;;25.94;51.20;100830.75;5097204;27;51143;-53
2021/09/10 04:36:12;;;;;;;;;5.75;5.50;;;;;25.94;51.13;100827.97;5088401;27;51632;-52
2021/09/10 04:38:37;;;;;;;;;7.00;5.00;;;;;25.93;51.54;100823.53;5079352;27;51128;-53
2021/09/10 04:41:02;;;;;;;;;3.25;3.25;;;;;25.93;51.13;100823.53;5078323;27;51116;-51
2021/09/10 04:43:28;;;;;;;;;4.00;4.00;;;;;25.92;51.30;100828.25;5079863;27;51140;-54
2021/09/10 04:45:53;;;;;;;;;4.50;4.50;;;;;25.91;51.54;100829.34;5085783;27;51398;-52
2021/09/10 04:48:18;;;;;;;;;6.25;5.00;;;;;25.90;51.09;100825.72;5077229;27;51326;-52
2021/09/10 04:50:44;;;;;;;;;4.75;4.50;;;;;25.91;51.22;100834.88;5078552;27;52036;-53
2021/09/10 04:53:09;;;;;;;;;4.75;4.00;;;;;25.90;51.08;100828.50;5082136;27;51132;-49
2021/09/10 04:55:34;;;;;;;;;5.00;4.00;;;;;25.90;51.37;100828.50;5093888;27;50973;-50
2021/09/10 04:58:00;;;;;;;;;5.25;4.50;;;;;25.88;51.41;100825.16;5096610;27;50995;-51
2021/09/10 05:00:25;;;;;;;;;3.75;3.25;;;;;25.89;51.53;100845.41;5094870;27;51862;-51
2021/09/10 05:02:51;;;;;;;;;4.00;4.00;;;;;25.87;51.47;100831.81;5095296;27;51044;-51
2021/09/10 05:05:17;;;;;;;;;3.00;3.00;;;;;25.88;51.55;100844.59;5082963;27;51234;-50
2021/09/10 05:07:42;;;;;;;;;3.00;3.00;;;;;25.87;51.40;100842.91;5097278;27;51107;-52
2021/09/10 05:10:08;;;;;;;;;3.75;3.75;;;;;25.86;51.51;100846.78;5096508;27;51021;-53
2021/09/10 05:12:33;;;;;;;;;4.00;3.25;;;;;25.85;51.03;100845.09;5096303;27;50981;-53
2021/09/10 05:14:59;;;;;;;;;3.50;2.00;;;;;25.86;51.44;100844.00;5093581;27;51150;-52
2021/09/10 05:17:24;;;;;;;;;4.25;4.25;;;;;25.84;51.51;100846.19;5078434;27;52017;-47
2021/09/10 05:19:49;;;;;;;;;4.00;4.00;;;;;25.85;51.42;100853.44;5076513;27;51782;-49
2021/09/10 05:22:15;;;;;;;;;3.25;3.00;;;;;25.85;51.37;100852.59;5092336;27;50977;-52
2021/09/10 05:24:40;;;;;;;;;5.50;4.50;;;;;25.84;51.53;100851.72;5088455;27;51378;-52
2021/09/10 05:27:07;;;;;;;;;4.25;4.25;;;;;25.85;51.50;100858.16;5095327;27;51495;-50
2021/09/10 05:29:32;;;;;;;;;5.50;5.50;;;;;25.84;51.46;100850.88;5088249;27;51187;-51
2021/09/10 05:31:58;;;;;;;;;4.75;4.00;;;;;25.84;51.49;100851.72;5088413;27;51250;-49
2021/09/10 05:34:23;;;;;;;;;4.75;4.00;;;;;25.83;51.55;100852.00;5078448;27;51291;-54
2021/09/10 05:36:49;;;;;;;;;3.00;3.00;;;;;25.83;51.44;100863.09;5084315;27;51100;-53
2021/09/10 05:39:14;;;;;;;;;4.75;4.75;;;;;25.83;51.53;100865.88;5076737;27;51727;-49
2021/09/10 05:41:39;;;;;;;;;4.00;3.25;;;;;25.82;51.58;100870.56;5083200;27;51086;-53
2021/09/10 05:44:05;;;;;;;;;3.25;3.00;;;;;25.80;51.93;100872.78;5084598;27;51793;-51
2021/09/10 05:46:30;;;;;;;;;5.25;2.00;;;;;25.82;51.79;100878.06;5085395;27;51371;-49
2021/09/10 05:48:55;;;;;;;;;4.00;4.00;;;;;25.82;52.04;100878.91;5082483;27;51937;-52
2021/09/10 05:51:21;;;;;;;;;5.50;4.00;;;;;25.84;51.95;100881.41;5079343;27;51109;-51
2021/09/10 05:53:46;;;;;;;;;4.00;3.50;;;;;25.85;52.81;100880.34;5067324;27;51258;-55
2021/09/10 05:56:12;;;;;;;;;6.75;3.75;;;;;25.87;52.44;100887.31;5084050;27;51191;-50
2021/09/10 05:58:37;;;;;;;;;4.00;3.25;;;;;25.90;52.79;100885.94;5093152;27;51801;-48
2021/09/10 06:01:02;;;;;;;;;6.25;5.00;;;;;25.92;52.75;100892.06;5094995;27;51345;-51
2021/09/10 06:03:28;;;;;;;;;7.50;5.00;;;;;25.93;53.48;100896.53;5091131;27;51417;-52
2021/09/10 06:05:53;;;;;;;;;5.25;5.00;;;;;25.95;53.27;100890.72;5081318;27;51156;-53
2021/09/10 06:08:18;;;;;;;;;5.25;4.25;;;;;25.98;53.36;100901.31;5078296;27;52523;-54
2021/09/10 06:10:46;;;;;;;;;5.50;4.00;;;;;25.99;53.45;100903.84;5088065;27;51045;-51
2021/09/10 06:13:11;;;;;;;;;4.50;3.50;;;;;26.01;53.33;100911.91;5085714;27;51168;-51
2021/09/10 06:15:37;;;;;;;;;3.00;3.00;;;;;26.03;53.38;100904.97;5072322;27;51388;-52
2021/09/10 06:18:02;;;;;;;;;4.00;4.00;;;;;26.05;53.95;100911.13;5077637;27;51988;-52
2021/09/10 06:20:28;;;;;;;;;3.50;3.50;;;;;26.06;53.62;100907.25;5087968;27;52015;-50
2021/09/10 06:22:53;;;;;;;;;6.00;4.25;;;;;26.08;53.62;100909.78;5075515;27;52186;-53
2021/09/10 06:25:19;;;;;;;;;3.50;3.50;;;;;26.09;53.39;100911.44;5086556;27;51180;-48
2021/09/10 06:27:44;;;;;;;;;9.00;5.00;;;;;26.10;53.50;100910.34;5082003;27;51879;-51
2021/09/10 06:30:10;;;;;;;;;9.00;6.75;;;;;26.10;53.35;100913.97;5090910;27;51322;-51
2021/09/10 06:32:36;;;;;;;;;5.50;5.00;;;;;26.11;53.46;100914.81;5097600;27;51300;-56
2021/09/10 06:35:02;;;;;;;;;6.75;4.00;;;;;26.12;52.87;100917.31;5084088;27;51181;-51
2021/09/10 06:37:28;;;;;;;;;7.00;4.75;;;;;26.14;53.31;100917.06;5085487;27;52462;-50
2021/09/10 06:39:54;;;;;;;;;3.75;2.50;;;;;26.14;53.17;100919.81;5096590;27;51986;-53
2021/09/10 06:42:19;;;;;;;;;3.75;3.50;;;;;26.14;52.54;100912.34;5090560;27;51296;-51
2021/09/10 06:44:44;;;;;;;;;8.00;5.25;;;;;26.14;52.73;100922.59;5092270;27;51143;-51
2021/09/10 06:47:10;;;;;;;;;4.00;3.25;;;;;26.13;52.55;100920.94;5096870;27;51689;-50
2021/09/10 06:49:35;;;;;;;;;4.00;4.00;;;;;26.14;52.64;100926.22;5086878;27;51358;-52
2021/09/10 06:52:00;;;;;;;;;6.75;5.25;;;;;26.14;52.72;100926.22;5084212;27;51112;-51
2021/09/10 06:54:26;;;;;;;;;7.25;7.25;;;;;26.15;52.74;100932.59;5095095;27;51301;-49
2021/09/10 06:56:51;;;;;;;;;7.00;5.00;;;;;26.16;52.76;100937.09;5088986;27;52869;-52
2021/09/10 06:59:19;;;;;;;;;4.00;2.75;;;;;26.17;52.55;100938.75;5099472;27;51103;-50
2021/09/10 07:01:47;;;;;;;;;5.75;4.50;;;;;26.18;52.29;100941.28;5093286;27;51754;-52
2021/09/10 07:04:13;;;;;;;;;5.25;5.00;;;;;26.18;52.67;100938.50;5095121;27;51324;-52
2021/09/10 07:06:39;;;;;;;;;6.00;5.00;;;;;26.19;52.14;100940.19;5080823;27;51191;-51
2021/09/10 07:09:04;;;;;;;;;6.50;5.50;;;;;26.19;52.50;100940.19;5083016;27;51128;-53
2021/09/10 07:11:32;;;;;;;;;8.25;6.25;;;;;26.21;52.13;100945.47;5081653;27;51263;-53
2021/09/10 07:13:58;;;;;;;;;6.00;6.00;;;;;26.21;51.98;100947.41;5082184;27;51319;-48
2021/09/10 07:16:23;;;;;;;;;4.25;4.25;;;;;26.22;51.99;100957.41;5084693;27;51863;-50
2021/09/10 07:18:49;;;;;;;;;5.75;5.75;;;;;26.20;52.06;100943.78;5082717;27;50975;-50
2021/09/10 07:21:14;;;;;;;;;6.00;4.25;;;;;26.21;51.89;100951.03;5092852;27;51099;-51
2021/09/10 07:23:39;;;;;;;;;3.25;3.25;;;;;26.22;52.19;100949.91;5082157;27;51046;-52
2021/09/10 07:26:05;;;;;;;;;5.25;4.00;;;;;26.21;51.88;100951.03;5088254;27;52641;-52
2021/09/10 07:28:34;;;;;;;;;5.00;5.00;;;;;26.21;51.78;100959.34;5083952;27;51454;-49
2021/09/10 07:31:00;;;;;;;;;6.25;4.25;;;;;26.21;51.82;100953.81;5086755;27;51205;-53
2021/09/10 07:33:26;;;;;;;;;4.00;4.00;;;;;26.21;51.79;100947.41;5085232;27;51072;-53
2021/09/10 07:35:53;;;;;;;;;6.75;6.00;;;;;26.22;51.60;100954.63;5091351;27;51898;-51
2021/09/10 07:38:18;;;;;;;;;5.50;5.25;;;;;26.20;51.64;100949.34;5078134;27;51226;-53
2021/09/10 07:40:44;;;;;;;;;6.00;5.00;;;;;26.20;51.83;100957.69;5091412;27;51199;-51
2021/09/10 07:43:09;;;;;;;;;5.00;5.00;;;;;26.21;51.66;100958.50;5086015;27;51192;-49
2021/09/10 07:45:35;;;;;;;;;8.00;6.25;;;;;26.21;51.46;100956.56;5094244;27;51703;-53
2021/09/10 07:48:00;;;;;;;;;4.50;4.50;;;;;26.21;51.26;100964.06;5093064;27;51237;-52
2021/09/10 07:50:25;;;;;;;;;5.25;4.00;;;;;26.20;51.40;100960.44;5078319;27;51075;-53
2021/09/10 07:52:51;;;;;;;;;4.50;3.00;;;;;26.22;51.51;100972.13;5076833;27;51259;-52
2021/09/10 07:55:16;;;;;;;;;6.00;6.00;;;;;26.22;51.58;100974.06;5090027;27;51897;-51
2021/09/10 07:57:42;;;;;;;;;4.25;4.25;;;;;26.22;51.90;100986.03;5089362;27;51064;-56
2021/09/10 08:00:07;;;;;;;;;8.00;7.50;;;;;26.15;51.26;100977.88;5090597;27;51179;-52
2021/09/10 08:02:35;;;;;;;;;5.00;5.00;;;;;25.87;51.63;100978.06;5090307;27;51278;-55
2021/09/10 08:05:02;;;;;;;;;8.75;6.50;;;;;25.54;52.16;100978.91;5082034;27;52125;-54
2021/09/10 08:07:27;;;;;;;;;6.25;5.50;;;;;25.31;52.51;100982.66;5083416;27;51060;-53
2021/09/10 08:09:52;;;;;;;;;6.50;5.50;;;;;25.13;52.63;100982.94;5090571;27;51447;-54
2021/09/10 08:12:18;;;;;;;;;4.00;3.00;;;;;24.92;53.29;100987.22;5090687;27;51301;-52
2021/09/10 08:14:43;;;;;;;;;8.75;6.00;;;;;24.68;53.77;100990.06;5089131;27;51281;-52
2021/09/10 08:17:08;;;;;;;;;5.75;3.50;;;;;24.52;54.27;100996.41;5093043;27;51220;-54
2021/09/10 08:19:34;;;;;;;;;7.25;5.25;;;;;24.38;54.44;100998.59;5089634;27;51168;-55
2021/09/10 08:21:59;;;;;;;;;8.00;6.50;;;;;24.26;54.78;100988.63;5081062;27;51403;-54
2021/09/10 08:24:24;;;;;;;;;6.50;6.00;;;;;24.09;55.36;100996.84;5082620;27;51416;-53
2021/09/10 08:26:50;;;;;;;;;5.50;5.00;;;;;23.95;55.41;100995.41;5092313;27;51219;-55
2021/09/10 08:29:15;;;;;;;;;7.50;5.50;;;;;23.81;55.50;100994.81;5090695;27;51274;-55
2021/09/10 08:31:41;;;;;;;;;7.00;5.75;;;;;23.75;55.75;100996.59;5089113;27;51121;-54
2021/09/10 08:34:07;;;;;;;;;6.00;6.00;;;;;23.69;55.82;100994.81;5088640;27;51840;-54
2021/09/10 08:36:33;;;;;;;;;4.75;4.50;;;;;23.67;56.41;100993.38;5086737;27;51254;-53
2021/09/10 08:38:59;;;;;;;;;5.25;5.25;;;;;23.63;55.90;100997.69;5080730;27;51146;-52
2021/09/10 08:41:27;;;;;;;;;6.00;6.00;;;;;23.60;56.78;101002.63;5081566;27;51151;-54
2021/09/10 08:43:57;;;;;;;;;6.00;5.00;;;;;23.54;56.13;101003.53;5091802;27;51478;-53
2021/09/10 08:46:24;;;;;;;;;4.50;4.50;;;;;23.55;56.41;101004.38;5086574;27;51333;-53
2021/09/10 08:48:50;;;;;;;;;7.00;5.25;;;;;23.57;56.50;100999.47;5093370;27;51216;-54
2021/09/10 08:51:18;;;;;;;;;9.50;8.25;;;;;23.58;56.69;101003.91;5082738;27;51025;-54
2021/09/10 08:53:43;;;;;;;;;6.75;5.75;;;;;23.57;56.63;101010.53;5078068;27;51314;-53
2021/09/10 08:56:08;;;;;;;;;6.00;6.00;;;;;23.56;56.83;101008.84;5052546;27;51291;-54
2021/09/10 08:58:34;;;;;;;;;12.75;9.00;;;;;23.55;56.96;101008.00;5079630;27;51337;-53
2021/09/10 09:01:00;;;;;;;;;8.25;8.25;;;;;23.61;56.45;101018.13;5080396;27;51858;-51
2021/09/10 09:03:33;;;;;;;;;6.75;6.00;;;;;23.68;56.46;101008.88;5090008;27;52544;-54
2021/09/10 09:05:59;;;;;;;;;7.25;6.50;;;;;23.75;56.11;101020.66;5089758;27;51178;-52
2021/09/10 09:08:25;;;;;;;;;7.25;7.00;;;;;23.71;56.16;101022.22;5088810;27;51269;-54
2021/09/10 09:11:11;;;;;;;;;7.00;5.00;;;;;23.71;56.18;101016.69;5077581;27;51176;-52
2021/09/10 09:13:43;;;;;;;;;5.00;5.00;;;;;23.71;56.51;101011.16;5082190;27;51236;-53
2021/09/10 09:16:20;;;;;;;;;8.75;6.00;;;;;23.68;56.21;101015.25;5089262;27;51115;-52
2021/09/10 09:18:47;;;;;;;;;7.50;7.00;;;;;23.68;56.08;101012.50;5086887;27;51346;-53
2021/09/10 09:21:13;;;;;;;;;6.75;6.25;;;;;23.73;56.10;101014.53;5091607;27;51683;-54
2021/09/10 09:23:39;;;;;;;;;11.00;8.75;;;;;23.80;56.13;101015.25;5077560;27;52864;-53
2021/09/10 09:26:16;;;;;;;;;5.25;5.25;;;;;23.78;56.20;101015.50;5082741;27;51318;-54
2021/09/10 09:28:42;;;;;;;;;6.75;5.25;;;;;23.80;56.10;101018.03;5074734;27;51420;-53
2021/09/10 09:31:09;;;;;;;;;6.50;6.00;;;;;23.85;55.95;101024.50;5085652;27;51236;-55
2021/09/10 09:33:38;;;;;;;;;6.25;4.75;;;;;23.86;55.54;101025.34;5092190;27;52603;-56
2021/09/10 09:36:06;;;;;;;;;4.50;4.50;;;;;23.86;55.42;101026.22;5089445;27;51157;-50
2021/09/10 09:38:36;;;;;;;;;4.25;4.25;;;;;23.86;55.27;101031.75;5066617;27;51204;-51
2021/09/10 09:41:07;;;;;;;;;7.00;4.50;;;;;23.87;54.94;101021.53;5092664;27;51330;-49
2021/09/10 09:43:44;;;;;;;;;6.75;6.75;;;;;23.93;55.36;101019.69;5082891;27;52899;-55
2021/09/10 09:46:12;;;;;;;;;4.00;4.00;;;;;23.98;55.22;101022.59;5082136;27;51386;-55
2021/09/10 09:48:39;;;;;;;;;6.25;5.25;;;;;24.08;54.74;101023.69;5085166;27;51136;-55
2021/09/10 09:51:06;;;;;;;;;4.25;4.25;;;;;24.17;54.98;101027.72;5071876;27;51257;-53
2021/09/10 09:53:34;;;;;;;;;4.75;4.25;;;;;24.26;54.52;101024.59;5092706;27;52068;-56
2021/09/10 09:56:01;;;;;;;;;8.25;5.00;;;;;24.34;54.76;101022.34;5078159;27;51208;-53
2021/09/10 09:58:29;;;;;;;;;7.50;5.50;;;;;24.42;54.51;101019.19;5081746;27;51148;-53
2021/09/10 10:00:54;;;;;;;;;5.00;5.00;;;;;24.49;54.05;101021.84;5089963;27;51400;-52
2021/09/10 10:03:19;;;;;;;;;9.75;6.50;;;;;24.55;53.84;101020.84;5080752;27;51195;-54
2021/09/10 10:06:06;;;;;;;;;5.25;4.50;;;;;24.62;54.10;101024.31;5077537;27;51165;-55
2021/09/10 10:08:55;;;;;;;;;9.50;6.00;;;;;24.69;53.82;101019.44;5081929;27;51147;-54
2021/09/10 10:11:22;;;;;;;;;6.00;6.00;;;;;24.74;53.44;101025.13;5083919;27;52034;-54
2021/09/10 10:13:55;;;;;;;;;8.00;6.00;;;;;24.79;53.26;101029.06;5080040;27;51821;-55
2021/09/10 10:16:41;;;;;;;;;4.00;4.00;;;;;24.84;53.29;101026.41;5081750;27;51507;-55
2021/09/10 10:19:41;;;;;;;;;5.75;5.00;;;;;24.88;53.21;101024.81;5078237;27;51325;-54
2021/09/10 10:22:10;;;;;;;;;3.00;2.25;;;;;24.92;52.85;101024.09;5072524;27;51178;-54
2021/09/10 10:24:38;;;;;;;;;5.75;5.00;;;;;24.95;52.72;101018.03;5081299;27;51264;-54
2021/09/10 10:27:33;;;;;;;;;5.75;5.75;;;;;24.99;52.47;101012.81;5089343;27;51247;-56
2021/09/10 10:30:00;;;;;;;;;5.25;5.25;;;;;25.01;52.70;101016.19;5089031;27;51005;-52
2021/09/10 10:32:29;;;;;;;;;7.75;6.25;;;;;25.04;52.53;100999.13;5089087;27;50988;-53
2021/09/10 10:35:14;;;;;;;;;6.25;5.25;;;;;25.09;52.14;101009.44;5078190;27;51835;-55
2021/09/10 10:37:43;;;;;;;;;5.00;4.50;;;;;25.11;51.98;101004.47;5073814;27;52130;-55
2021/09/10 10:40:36;;;;;;;;;5.50;4.00;;;;;25.15;51.92;101005.69;5078318;27;51156;-54
2021/09/10 10:43:04;;;;;;;;;5.00;3.25;;;;;25.17;51.58;100997.94;5079951;27;51242;-53
2021/09/10 10:45:42;;;;;;;;;5.00;5.00;;;;;25.18;51.32;100994.94;5082177;27;50964;-54
2021/09/10 10:48:29;;;;;;;;;6.75;5.50;;;;;25.20;50.95;100992.75;5078582;27;51170;-54
2021/09/10 10:51:13;;;;;;;;;7.25;6.50;;;;;25.24;50.99;100993.09;5076861;27;51202;-57
2021/09/10 10:53:47;;;;;;;;;3.50;3.00;;;;;25.27;50.96;100998.13;5084915;27;51073;-56
2021/09/10 10:56:21;;;;;;;;;6.00;5.00;;;;;25.30;50.48;100997.63;5083315;27;51056;-53
2021/09/10 10:59:13;;;;;;;;;6.00;6.00;;;;;25.32;50.59;100990.75;5079794;27;52329;-56
2021/09/10 11:04:48;;;;;;;;;6.25;6.25;;;;;25.39;49.82;100984.19;5088433;27;51103;-53
2021/09/10 11:07:18;;;;;;;;;8.75;6.75;;;;;25.42;50.04;100986.44;5080550;27;51817;-55
2021/09/10 11:09:59;;;;;;;;;3.50;2.50;;;;;25.43;49.34;100985.34;5088139;27;51494;-55
2021/09/10 11:12:25;;;;;;;;;7.50;4.75;;;;;25.43;49.74;100985.34;5089418;27;51232;-56
2021/09/10 11:14:51;;;;;;;;;5.25;5.25;;;;;25.44;49.06;100995.38;5084519;27;51035;-56
2021/09/10 11:17:16;;;;;;;;;5.50;3.50;;;;;25.44;49.36;100987.06;5089978;27;51821;-55
2021/09/10 11:19:45;;;;;;;;;7.00;4.00;;;;;25.43;49.29;100983.44;5087250;27;51101;-55
2021/09/10 11:22:11;;;;;;;;;4.50;3.25;;;;;25.43;49.04;100985.34;5092959;27;51184;-57
2021/09/10 11:24:36;;;;;;;;;4.25;4.25;;;;;25.43;49.54;100977.91;5090584;27;51230;-54
2021/09/10 11:27:02;;;;;;;;;5.25;5.25;;;;;25.43;49.37;100980.69;5090765;27;51210;-55